createdAt,value
2023-12-30T00:00:32.651Z,6.00
2023-12-30T00:03:03.790Z,5.60
2023-12-30T00:05:33.998Z,6.47
2023-12-30T00:08:04.657Z,6.55
2023-12-30T00:10:34.608Z,5.43
2023-12-30T00:13:05.098Z,5.72
2023-12-30T00:15:35.213Z,5.07
2023-12-30T00:18:05.729Z,6.32
2023-12-30T00:20:35.786Z,5.05
2023-12-30T00:23:06.082Z,5.60
2023-12-30T00:25:36.307Z,4.85
2023-12-30T00:28:07.355Z,5.35
2023-12-30T00:30:37.514Z,5.50
2023-12-30T00:33:08.252Z,6.18
2023-12-30T00:35:38.396Z,4.13
2023-12-30T00:38:08.843Z,8.93
2023-12-30T00:40:38.980Z,6.63
2023-12-30T00:43:09.377Z,5.63
2023-12-30T00:45:40.030Z,5.15
2023-12-30T00:48:10.508Z,4.47
2023-12-30T00:50:40.719Z,3.45
2023-12-30T00:53:11.189Z,4.35
2023-12-30T00:55:41.252Z,5.45
2023-12-30T00:58:11.896Z,4.55
2023-12-30T01:00:42.064Z,4.80
2023-12-30T01:03:12.442Z,7.15
2023-12-30T01:05:43.040Z,5.35
2023-12-30T01:08:13.628Z,6.03
2023-12-30T01:10:43.740Z,5.03
2023-12-30T01:13:14.199Z,4.72
2023-12-30T01:15:44.263Z,4.40
2023-12-30T01:18:15.145Z,6.38
2023-12-30T01:20:45.397Z,6.82
2023-12-30T01:23:16.098Z,6.47
2023-12-30T01:25:46.069Z,8.18
2023-12-30T01:28:16.527Z,6.53
2023-12-30T01:30:46.454Z,7.05
2023-12-30T01:33:17.089Z,6.32
2023-12-30T01:35:47.243Z,8.02
2023-12-30T01:38:18.312Z,6.80
2023-12-30T01:40:48.328Z,7.47
2023-12-30T01:43:28.690Z,6.57
2023-12-30T01:46:04.730Z,8.75
2023-12-30T01:48:36.251Z,5.07
2023-12-30T01:51:23.964Z,6.38
2023-12-30T01:53:56.874Z,6.55
2023-12-30T01:56:28.708Z,5.18
2023-12-30T01:59:01.088Z,6.35
2023-12-30T02:01:31.251Z,6.72
2023-12-30T02:04:02.166Z,4.65
2023-12-30T02:06:32.195Z,5.97
2023-12-30T02:09:03.643Z,5.75
2023-12-30T02:11:34.594Z,5.38
2023-12-30T02:14:04.987Z,6.47
2023-12-30T02:16:34.955Z,6.28
2023-12-30T02:19:05.445Z,5.50
2023-12-30T02:21:35.720Z,5.22
2023-12-30T02:24:06.214Z,5.40
2023-12-30T02:26:36.446Z,5.82
2023-12-30T02:29:10.386Z,15.93
2023-12-30T02:31:47.149Z,7.63
2023-12-30T02:34:19.124Z,7.65
2023-12-30T02:36:49.560Z,11.75
2023-12-30T02:39:20.143Z,5.45
2023-12-30T02:41:50.380Z,3.90
2023-12-30T02:44:22.378Z,4.60
2023-12-30T02:46:52.548Z,4.38
2023-12-30T02:49:23.025Z,5.70
2023-12-30T02:51:55.213Z,4.85
2023-12-30T02:54:25.752Z,4.07
2023-12-30T02:56:57.161Z,4.00
2023-12-30T02:59:27.358Z,4.90
2023-12-30T03:01:57.594Z,5.95
2023-12-30T03:04:28.130Z,6.85
2023-12-30T03:06:58.280Z,5.22
2023-12-30T03:09:28.687Z,3.92
2023-12-30T03:11:58.680Z,5.28
2023-12-30T03:14:29.355Z,3.20
2023-12-30T03:16:59.515Z,4.25
2023-12-30T03:19:29.934Z,7.03
2023-12-30T03:22:00.169Z,7.53
2023-12-30T03:24:30.678Z,6.45
2023-12-30T03:27:01.119Z,4.13
2023-12-30T03:29:31.445Z,3.45
2023-12-30T03:32:01.625Z,4.30
2023-12-30T03:34:31.942Z,6.25
2023-12-30T03:37:02.264Z,4.32
2023-12-30T03:39:32.645Z,5.47
2023-12-30T03:42:02.962Z,3.83
2023-12-30T03:44:33.892Z,7.38
2023-12-30T03:47:04.067Z,6.45
2023-12-30T03:49:35.026Z,7.30
2023-12-30T03:52:05.382Z,9.13
2023-12-30T03:54:36.719Z,10.25
2023-12-30T03:57:06.921Z,11.65
2023-12-30T03:59:38.195Z,11.55
2023-12-30T04:02:08.214Z,5.22
2023-12-30T04:04:38.789Z,5.93
2023-12-30T04:07:08.947Z,5.15
2023-12-30T04:09:39.389Z,3.80
2023-12-30T04:12:10.785Z,3.70
2023-12-30T04:14:41.715Z,2.38
2023-12-30T04:17:11.702Z,3.47
2023-12-30T04:19:42.313Z,3.05
2023-12-30T04:22:12.619Z,1.88
2023-12-30T04:24:42.956Z,3.28
2023-12-30T04:27:12.892Z,2.38
2023-12-30T04:29:43.363Z,2.42
2023-12-30T04:32:13.368Z,2.75
2023-12-30T04:34:43.824Z,1.13
2023-12-30T04:37:15.010Z,2.13
2023-12-30T04:39:45.438Z,1.15
2023-12-30T04:42:16.277Z,1.38
2023-12-30T04:44:46.501Z,2.83
2023-12-30T04:47:16.515Z,4.03
2023-12-30T04:49:46.966Z,2.58
2023-12-30T04:52:17.007Z,1.20
2023-12-30T04:54:47.608Z,1.85
2023-12-30T04:57:17.854Z,2.33
2023-12-30T04:59:48.299Z,1.13
2023-12-30T05:02:18.376Z,2.38
2023-12-30T05:04:48.972Z,1.48
2023-12-30T05:07:19.102Z,1.98
2023-12-30T05:09:51.325Z,2.10
2023-12-30T05:12:21.317Z,2.08
2023-12-30T05:14:51.898Z,1.85
2023-12-30T05:17:22.032Z,2.90
2023-12-30T05:19:52.958Z,5.90
2023-12-30T05:22:23.147Z,5.43
2023-12-30T05:24:53.675Z,3.90
2023-12-30T05:27:23.815Z,4.47
2023-12-30T05:29:54.086Z,3.97
2023-12-30T05:32:24.347Z,3.97
2023-12-30T05:34:54.922Z,4.60
2023-12-30T05:37:25.139Z,2.97
2023-12-30T05:39:55.573Z,4.80
2023-12-30T05:42:25.957Z,5.13
2023-12-30T05:44:56.453Z,4.13
2023-12-30T05:47:26.546Z,5.22
2023-12-30T05:49:57.107Z,3.75
2023-12-30T05:52:27.384Z,3.83
2023-12-30T05:54:57.990Z,3.53
2023-12-30T05:57:28.469Z,4.97
2023-12-30T05:59:58.965Z,4.78
2023-12-30T06:02:29.147Z,4.97
2023-12-30T06:04:59.752Z,4.25
2023-12-30T06:07:29.963Z,3.97
2023-12-30T06:10:00.499Z,2.58
2023-12-30T06:12:30.634Z,3.15
2023-12-30T06:15:01.053Z,2.63
2023-12-30T06:17:31.626Z,4.47
2023-12-30T06:20:02.110Z,3.63
2023-12-30T06:22:32.667Z,3.22
2023-12-30T06:25:04.940Z,4.82
2023-12-30T06:27:35.378Z,3.58
2023-12-30T06:30:06.572Z,3.00
2023-12-30T06:32:36.848Z,4.97
2023-12-30T06:35:07.550Z,4.07
2023-12-30T06:37:37.792Z,4.70
2023-12-30T06:40:09.179Z,4.20
2023-12-30T06:42:39.747Z,4.13
2023-12-30T06:45:10.558Z,3.50
2023-12-30T06:47:42.154Z,3.38
2023-12-30T06:50:13.541Z,4.65
2023-12-30T06:52:43.714Z,6.25
2023-12-30T06:55:20.923Z,4.40
2023-12-30T06:57:55.876Z,4.53
2023-12-30T07:00:26.392Z,5.25
2023-12-30T07:02:56.371Z,3.50
2023-12-30T07:05:26.965Z,3.00
2023-12-30T07:07:57.128Z,3.13
2023-12-30T07:10:27.633Z,3.95
2023-12-30T07:12:57.573Z,3.85
2023-12-30T07:15:28.077Z,6.32
2023-12-30T07:17:58.128Z,3.85
2023-12-30T07:20:28.547Z,5.38
2023-12-30T07:22:59.393Z,6.20
2023-12-30T07:25:30.011Z,5.07
2023-12-30T07:28:00.386Z,4.18
2023-12-30T07:30:31.013Z,5.65
2023-12-30T07:33:02.948Z,4.90
2023-12-30T07:35:33.400Z,5.65
2023-12-30T07:38:03.599Z,8.50
2023-12-30T07:40:34.047Z,5.15
2023-12-30T07:43:05.410Z,9.60
2023-12-30T07:45:36.508Z,6.78
2023-12-30T07:48:06.788Z,5.78
2023-12-30T07:50:37.031Z,5.28
2023-12-30T07:53:07.335Z,6.53
2023-12-30T07:55:37.861Z,7.45
2023-12-30T07:58:08.131Z,9.30
2023-12-30T08:00:39.307Z,8.15
2023-12-30T08:03:09.948Z,6.13
2023-12-30T08:05:40.858Z,5.22
2023-12-30T08:08:13.454Z,7.07
2023-12-30T08:10:43.706Z,6.10
2023-12-30T08:13:13.907Z,6.03
2023-12-30T08:15:44.237Z,4.70
2023-12-30T08:18:14.527Z,4.43
2023-12-30T08:20:44.906Z,5.65
2023-12-30T08:23:15.130Z,6.32
2023-12-30T08:25:45.742Z,3.72
2023-12-30T08:28:15.910Z,6.07
2023-12-30T08:30:47.689Z,4.30
2023-12-30T08:33:18.096Z,7.00
2023-12-30T08:35:50.482Z,4.60
2023-12-30T08:38:20.879Z,5.07
2023-12-30T08:40:51.930Z,7.88
2023-12-30T08:43:22.185Z,4.78
2023-12-30T08:45:52.850Z,4.80
2023-12-30T08:48:23.104Z,6.95
2023-12-30T08:50:53.698Z,5.72
2023-12-30T08:53:26.515Z,8.75
2023-12-30T08:55:57.052Z,7.18
2023-12-30T08:58:27.208Z,7.03
2023-12-30T09:00:57.837Z,9.82
2023-12-30T09:03:27.969Z,5.05
2023-12-30T09:05:58.464Z,6.93
2023-12-30T09:08:28.658Z,8.25
2023-12-30T09:10:59.813Z,6.00
2023-12-30T09:13:30.094Z,8.20
2023-12-30T09:16:00.536Z,7.43
2023-12-30T09:18:30.955Z,10.63
2023-12-30T09:21:01.157Z,7.82
2023-12-30T09:23:31.897Z,10.48
2023-12-30T09:26:02.306Z,9.00
2023-12-30T09:28:32.255Z,9.82
2023-12-30T09:31:02.633Z,9.77
2023-12-30T09:33:33.091Z,10.98
2023-12-30T09:36:03.946Z,7.32
2023-12-30T09:38:34.003Z,9.35
2023-12-30T09:41:04.411Z,8.65
2023-12-30T09:43:34.843Z,5.60
2023-12-30T09:46:06.208Z,7.00
2023-12-30T09:48:37.799Z,8.40
2023-12-30T09:51:08.703Z,6.35
2023-12-30T09:53:39.560Z,7.22
2023-12-30T09:56:13.017Z,6.68
2023-12-30T09:58:45.007Z,6.97
2023-12-30T10:01:15.794Z,7.88
2023-12-30T10:03:46.132Z,5.18
2023-12-30T10:06:21.503Z,8.70
2023-12-30T10:08:51.880Z,8.25
2023-12-30T10:11:22.090Z,11.48
2023-12-30T10:13:55.634Z,12.50
2023-12-30T10:16:26.391Z,15.52
2023-12-30T10:18:57.989Z,11.23
2023-12-30T10:21:29.495Z,12.35
2023-12-30T10:24:05.496Z,9.05
2023-12-30T10:26:38.625Z,10.68
2023-12-30T10:29:09.591Z,9.35
2023-12-30T10:31:40.563Z,11.48
2023-12-30T10:34:10.880Z,10.40
2023-12-30T10:36:41.786Z,8.50
2023-12-30T10:39:16.409Z,7.97
2023-12-30T10:41:47.053Z,11.20
2023-12-30T10:44:17.603Z,8.35
2023-12-30T10:46:50.799Z,8.27
2023-12-30T10:49:23.223Z,5.47
2023-12-30T10:51:55.766Z,9.00
2023-12-30T10:54:40.753Z,6.78
2023-12-30T10:57:16.168Z,5.38
2023-12-30T10:59:50.829Z,7.35
2023-12-30T11:02:21.710Z,6.72
2023-12-30T11:04:54.177Z,8.90
2023-12-30T11:07:28.016Z,8.15
2023-12-30T11:09:58.499Z,7.20
2023-12-30T11:12:31.947Z,9.52
2023-12-30T11:15:02.124Z,9.70
2023-12-30T11:17:36.808Z,11.43
2023-12-30T11:20:24.281Z,6.68
2023-12-30T11:22:58.793Z,5.45
2023-12-30T11:25:39.120Z,7.32
2023-12-30T11:28:27.402Z,6.32
2023-12-30T11:31:00.369Z,4.35
2023-12-30T11:33:30.912Z,7.40
2023-12-30T11:36:04.609Z,6.50
2023-12-30T11:38:36.975Z,6.07
2023-12-30T11:41:07.220Z,6.05
2023-12-30T11:43:37.537Z,5.78
2023-12-30T11:46:07.951Z,6.03
2023-12-30T11:48:38.282Z,4.55
2023-12-30T11:51:08.602Z,5.80
2023-12-30T11:53:39.004Z,4.72
2023-12-30T11:56:09.951Z,6.88
2023-12-30T11:58:41.725Z,5.93
2023-12-30T12:01:13.127Z,5.30
2023-12-30T12:03:43.602Z,7.95
2023-12-30T12:06:14.682Z,5.63
2023-12-30T12:08:45.544Z,6.60
2023-12-30T12:11:15.899Z,6.72
2023-12-30T12:13:47.754Z,4.22
2023-12-30T12:16:19.752Z,3.90
2023-12-30T12:18:50.472Z,7.20
2023-12-30T12:21:20.701Z,4.45
2023-12-30T12:23:51.155Z,4.70
2023-12-30T12:26:22.846Z,3.78
2023-12-30T12:28:55.462Z,5.93
2023-12-30T12:31:31.982Z,4.70
2023-12-30T12:34:24.005Z,6.30
2023-12-30T12:36:55.089Z,4.88
2023-12-30T12:39:26.464Z,5.30
2023-12-30T12:41:56.456Z,5.95
2023-12-30T12:44:26.710Z,6.78
2023-12-30T12:46:57.001Z,6.72
2023-12-30T12:49:27.626Z,5.85
2023-12-30T12:51:57.641Z,4.22
2023-12-30T12:54:27.999Z,7.38
2023-12-30T12:56:58.441Z,6.70
2023-12-30T12:59:29.047Z,5.13
2023-12-30T13:02:00.016Z,5.50
2023-12-30T13:04:30.916Z,6.65
2023-12-30T13:07:01.139Z,3.45
2023-12-30T13:09:36.401Z,4.55
2023-12-30T13:12:06.941Z,8.35
2023-12-30T13:14:37.620Z,5.75
2023-12-30T13:17:13.234Z,4.28
2023-12-30T13:19:45.244Z,4.30
2023-12-30T13:22:15.922Z,5.50
2023-12-30T13:24:46.387Z,6.53
2023-12-30T13:27:17.092Z,6.07
2023-12-30T13:29:47.378Z,5.25
2023-12-30T13:32:17.943Z,5.68
2023-12-30T13:34:52.327Z,5.43
2023-12-30T13:37:23.864Z,5.72
2023-12-30T13:39:58.807Z,3.40
2023-12-30T13:42:28.977Z,3.08
2023-12-30T13:45:01.975Z,3.15
2023-12-30T13:47:41.543Z,3.00
2023-12-30T13:50:19.815Z,3.95
2023-12-30T13:52:51.729Z,3.35
2023-12-30T13:55:22.809Z,4.07
2023-12-30T13:57:54.431Z,4.55
2023-12-30T14:00:24.673Z,5.18
2023-12-30T14:02:55.610Z,5.35
2023-12-30T14:05:36.903Z,6.03
2023-12-30T14:08:18.177Z,4.95
2023-12-30T14:10:50.194Z,5.70
2023-12-30T14:13:23.984Z,4.68
2023-12-30T14:15:54.738Z,6.47
2023-12-30T14:18:25.103Z,5.25
2023-12-30T14:20:55.625Z,7.40
2023-12-30T14:23:25.691Z,4.70
2023-12-30T14:25:56.190Z,4.15
2023-12-30T14:28:26.387Z,3.30
2023-12-30T14:30:56.932Z,3.42
2023-12-30T14:33:27.183Z,4.20
2023-12-30T14:35:57.560Z,4.22
2023-12-30T14:38:27.537Z,6.40
2023-12-30T14:40:58.272Z,5.50
2023-12-30T14:43:28.351Z,6.05
2023-12-30T14:45:59.040Z,5.75
2023-12-30T14:48:29.240Z,8.68
2023-12-30T14:50:59.958Z,4.10
2023-12-30T14:53:30.026Z,4.70
2023-12-30T14:56:00.269Z,5.18
2023-12-30T14:58:30.319Z,4.85
2023-12-30T15:01:00.804Z,4.10
2023-12-30T15:03:31.121Z,5.75
2023-12-30T15:06:01.577Z,5.43
2023-12-30T15:08:33.981Z,5.63
2023-12-30T15:11:04.802Z,7.15
2023-12-30T15:13:35.013Z,3.95
2023-12-30T15:16:05.472Z,7.40
2023-12-30T15:18:35.742Z,5.57
2023-12-30T15:21:06.682Z,5.00
2023-12-30T15:23:37.039Z,5.97
2023-12-30T15:26:08.362Z,5.90
2023-12-30T15:28:38.494Z,9.57
2023-12-30T15:31:09.162Z,9.27
2023-12-30T15:33:39.593Z,8.57
2023-12-30T15:36:10.922Z,11.38
2023-12-30T15:38:41.230Z,8.98
2023-12-30T15:41:12.411Z,7.47
2023-12-30T15:43:42.912Z,7.50
2023-12-30T15:46:13.385Z,7.55
2023-12-30T15:48:43.620Z,6.82
2023-12-30T15:51:14.146Z,11.30
2023-12-30T15:53:45.977Z,6.90
2023-12-30T15:56:16.551Z,7.43
2023-12-30T15:58:46.931Z,5.15
2023-12-30T16:01:17.518Z,5.57
2023-12-30T16:03:47.673Z,7.93
2023-12-30T16:06:18.221Z,9.15
2023-12-30T16:08:48.524Z,7.90
2023-12-30T16:11:18.836Z,8.50
2023-12-30T16:13:49.033Z,8.45
2023-12-30T16:16:19.514Z,5.65
2023-12-30T16:18:50.052Z,7.75
2023-12-30T16:21:20.571Z,7.72
2023-12-30T16:23:50.930Z,10.55
2023-12-30T16:26:23.868Z,7.05
2023-12-30T16:28:54.720Z,12.52
2023-12-30T16:31:25.475Z,9.85
2023-12-30T16:33:55.825Z,12.82
2023-12-30T16:36:26.727Z,8.05
2023-12-30T16:38:57.612Z,8.85
2023-12-30T16:41:27.983Z,7.75
2023-12-30T16:43:58.868Z,6.47
2023-12-30T16:46:29.867Z,6.38
2023-12-30T16:49:00.845Z,5.65
2023-12-30T16:51:32.525Z,4.68
2023-12-30T16:54:03.596Z,6.15
2023-12-30T16:56:34.276Z,6.03
2023-12-30T16:59:04.303Z,5.65
2023-12-30T17:01:35.959Z,7.15
2023-12-30T17:04:06.026Z,8.55
2023-12-30T17:06:36.510Z,6.50
2023-12-30T17:09:06.584Z,7.63
2023-12-30T17:11:40.815Z,5.93
2023-12-30T17:14:11.131Z,8.30
2023-12-30T17:16:41.724Z,9.48
2023-12-30T17:19:12.300Z,10.98
2023-12-30T17:21:42.793Z,6.82
2023-12-30T17:24:13.130Z,8.50
2023-12-30T17:26:43.699Z,8.07
2023-12-30T17:29:14.114Z,7.43
2023-12-30T17:31:44.503Z,6.22
2023-12-30T17:34:14.603Z,8.43
2023-12-30T17:36:45.058Z,6.97
2023-12-30T17:39:15.801Z,6.70
2023-12-30T17:41:46.105Z,8.88
2023-12-30T17:44:16.505Z,8.80
2023-12-30T17:46:46.931Z,10.00
2023-12-30T17:49:17.157Z,8.40
2023-12-30T17:51:47.553Z,8.40
2023-12-30T17:54:17.966Z,9.23
2023-12-30T17:56:48.479Z,10.88
2023-12-30T17:59:18.600Z,11.15
2023-12-30T18:01:49.196Z,8.88
2023-12-30T18:04:19.333Z,10.13
2023-12-30T18:06:49.682Z,21.13
2023-12-30T18:09:19.892Z,16.23
2023-12-30T18:11:50.436Z,10.57
2023-12-30T18:14:23.159Z,7.95
2023-12-30T18:16:53.504Z,12.48
2023-12-30T18:19:23.869Z,13.23
2023-12-30T18:21:59.828Z,10.02
2023-12-30T18:24:30.082Z,13.18
2023-12-30T18:27:01.940Z,8.90
2023-12-30T18:29:32.453Z,10.45
2023-12-30T18:32:03.223Z,13.57
2023-12-30T18:34:35.630Z,13.32
2023-12-30T18:37:08.368Z,14.15
2023-12-30T18:39:38.502Z,17.70
2023-12-30T18:42:09.734Z,13.95
2023-12-30T18:44:40.983Z,14.23
2023-12-30T18:47:11.387Z,12.95
2023-12-30T18:49:41.888Z,13.50
2023-12-30T18:52:12.892Z,27.08
2023-12-30T18:54:42.874Z,11.32
2023-12-30T18:57:13.256Z,12.40
2023-12-30T18:59:43.637Z,11.40
2023-12-30T19:02:13.969Z,11.80
2023-12-30T19:04:45.096Z,15.10
2023-12-30T19:07:15.558Z,9.55
2023-12-30T19:09:45.717Z,8.20
2023-12-30T19:12:16.265Z,7.10
2023-12-30T19:14:46.454Z,8.02
2023-12-30T19:17:17.038Z,10.13
2023-12-30T19:19:47.075Z,7.80
2023-12-30T19:22:17.425Z,7.65
2023-12-30T19:24:47.561Z,10.10
2023-12-30T19:27:18.135Z,16.48
2023-12-30T19:29:48.300Z,16.90
2023-12-30T19:32:18.434Z,21.55
2023-12-30T19:34:49.301Z,28.20
2023-12-30T19:37:19.900Z,43.58
2023-12-30T19:39:51.156Z,38.33
2023-12-30T19:42:21.650Z,37.83
2023-12-30T19:44:51.931Z,78.72
2023-12-30T19:47:22.223Z,61.53
2023-12-30T19:49:52.314Z,51.25
2023-12-30T19:52:22.908Z,22.30
2023-12-30T19:54:53.159Z,42.63
2023-12-30T19:57:25.852Z,22.05
2023-12-30T19:59:55.965Z,21.55
2023-12-30T20:02:26.422Z,18.05
2023-12-30T20:04:57.109Z,18.27
2023-12-30T20:07:28.086Z,15.98
2023-12-30T20:09:58.115Z,20.35
2023-12-30T20:12:29.729Z,14.93
2023-12-30T20:14:59.956Z,11.98
2023-12-30T20:17:30.332Z,14.85
2023-12-30T20:20:03.037Z,14.90
2023-12-30T20:22:34.345Z,15.55
2023-12-30T20:25:05.770Z,13.32
2023-12-30T20:27:37.292Z,17.27
2023-12-30T20:30:08.527Z,22.42
2023-12-30T20:32:39.063Z,22.77
2023-12-30T20:35:09.319Z,18.73
2023-12-30T20:37:40.016Z,18.20
2023-12-30T20:40:11.274Z,13.77
2023-12-30T20:42:41.563Z,10.25
2023-12-30T20:45:14.404Z,16.02
2023-12-30T20:47:45.012Z,18.92
2023-12-30T20:50:15.101Z,13.35
2023-12-30T20:52:45.620Z,11.75
2023-12-30T20:55:16.781Z,15.43
2023-12-30T20:57:49.609Z,29.23
2023-12-30T21:00:23.429Z,16.50
2023-12-30T21:02:54.007Z,24.35
2023-12-30T21:05:24.179Z,17.27
2023-12-30T21:07:57.384Z,18.38
2023-12-30T21:10:27.524Z,13.38
2023-12-30T21:12:58.195Z,16.48
2023-12-30T21:15:28.378Z,14.50
2023-12-30T21:17:58.859Z,21.40
2023-12-30T21:20:29.050Z,28.17
2023-12-30T21:22:59.535Z,23.90
2023-12-30T21:25:29.959Z,16.33
2023-12-30T21:28:00.421Z,14.55
2023-12-30T21:30:30.621Z,15.52
2023-12-30T21:33:01.292Z,15.70
2023-12-30T21:35:31.562Z,13.40
2023-12-30T21:38:02.357Z,13.50
2023-12-30T21:40:32.793Z,15.23
2023-12-30T21:43:03.451Z,11.40
2023-12-30T21:45:33.726Z,14.63
2023-12-30T21:48:05.300Z,13.55
2023-12-30T21:50:35.511Z,12.25
2023-12-30T21:53:06.118Z,19.38
2023-12-30T21:55:36.394Z,17.48
2023-12-30T21:58:06.599Z,22.20
2023-12-30T22:00:39.373Z,17.00
2023-12-30T22:03:11.294Z,20.10
2023-12-30T22:05:42.386Z,18.45
2023-12-30T22:08:14.700Z,17.17
2023-12-30T22:10:45.060Z,13.27
2023-12-30T22:13:15.863Z,12.48
2023-12-30T22:15:45.790Z,11.90
2023-12-30T22:18:16.343Z,10.63
2023-12-30T22:20:46.643Z,16.48
2023-12-30T22:23:19.298Z,19.50
2023-12-30T22:25:50.137Z,55.97
2023-12-30T22:28:20.527Z,123.53
2023-12-30T22:30:50.542Z,77.78
2023-12-30T22:33:21.023Z,150.95
2023-12-30T22:35:51.204Z,112.28
2023-12-30T22:38:21.377Z,100.32
2023-12-30T22:40:51.596Z,41.10
2023-12-30T22:43:22.013Z,28.48
2023-12-30T22:45:52.643Z,21.65
2023-12-30T22:48:23.277Z,18.83
2023-12-30T22:50:53.665Z,15.75
2023-12-30T22:53:24.056Z,14.55
2023-12-30T22:55:54.306Z,17.80
2023-12-30T22:58:24.806Z,23.40
2023-12-30T23:00:55.098Z,20.38
2023-12-30T23:03:25.616Z,19.00
2023-12-30T23:05:56.964Z,16.05
2023-12-30T23:08:27.454Z,16.75
2023-12-30T23:10:57.622Z,13.32
2023-12-30T23:13:27.872Z,15.20
2023-12-30T23:15:58.239Z,16.35
2023-12-30T23:18:28.575Z,24.17
2023-12-30T23:20:58.656Z,17.70
2023-12-30T23:23:29.115Z,13.77
2023-12-30T23:25:59.565Z,11.27
2023-12-30T23:28:29.925Z,14.57
2023-12-30T23:31:00.256Z,12.25
2023-12-30T23:33:30.487Z,12.50
2023-12-30T23:36:03.528Z,17.90
2023-12-30T23:38:33.754Z,13.82
2023-12-30T23:41:04.379Z,16.75
2023-12-30T23:43:34.870Z,16.83
2023-12-30T23:46:05.103Z,16.38
2023-12-30T23:48:35.529Z,17.02
2023-12-30T23:51:05.671Z,21.30
2023-12-30T23:53:37.457Z,11.38
2023-12-30T23:56:07.666Z,13.20
2023-12-30T23:58:38.482Z,13.23
